sensor_id;sensor_type;location;lat;lon;timestamp;P1;durP1;ratioP1;P2;durP2;ratioP2
20443;SDS011;10381;53.730;10.010;2023-09-30T00:03:53;12.90;;;3.63;;
20443;SDS011;10381;53.730;10.010;2023-09-30T00:07:53;15.57;;;3.57;;
20443;SDS011;10381;53.730;10.010;2023-09-30T00:11:54;10.45;;;4.18;;
20443;SDS011;10381;53.730;10.010;2023-09-30T00:15:55;6.13;;;3.75;;
20443;SDS011;10381;53.730;10.010;2023-09-30T00:19:55;23.87;;;4.47;;
20443;SDS011;10381;53.730;10.010;2023-09-30T00:23:56;12.48;;;3.97;;
20443;SDS011;10381;53.730;10.010;2023-09-30T00:27:56;14.07;;;3.88;;
20443;SDS011;10381;53.730;10.010;2023-09-30T00:31:57;14.82;;;3.45;;
20443;SDS011;10381;53.730;10.010;2023-09-30T00:35:57;15.43;;;4.25;;
20443;SDS011;10381;53.730;10.010;2023-09-30T00:39:57;16.67;;;4.57;;
20443;SDS011;10381;53.730;10.010;2023-09-30T00:43:58;16.60;;;3.57;;
20443;SDS011;10381;53.730;10.010;2023-09-30T00:47:58;13.25;;;4.40;;
20443;SDS011;10381;53.730;10.010;2023-09-30T00:51:59;14.30;;;3.78;;
20443;SDS011;10381;53.730;10.010;2023-09-30T00:55:59;20.55;;;4.18;;
20443;SDS011;10381;53.730;10.010;2023-09-30T01:00:00;15.98;;;4.28;;
20443;SDS011;10381;53.730;10.010;2023-09-30T01:04:01;10.05;;;3.75;;
20443;SDS011;10381;53.730;10.010;2023-09-30T01:08:01;19.08;;;4.60;;
20443;SDS011;10381;53.730;10.010;2023-09-30T01:12:03;11.50;;;3.75;;
20443;SDS011;10381;53.730;10.010;2023-09-30T01:16:08;20.50;;;4.30;;
20443;SDS011;10381;53.730;10.010;2023-09-30T01:20:12;7.22;;;3.08;;
20443;SDS011;10381;53.730;10.010;2023-09-30T01:24:22;9.00;;;3.65;;
20443;SDS011;10381;53.730;10.010;2023-09-30T01:28:22;19.63;;;3.80;;
20443;SDS011;10381;53.730;10.010;2023-09-30T01:32:23;25.35;;;4.25;;
20443;SDS011;10381;53.730;10.010;2023-09-30T01:36:23;12.77;;;3.87;;
20443;SDS011;10381;53.730;10.010;2023-09-30T01:40:23;9.38;;;3.45;;
20443;SDS011;10381;53.730;10.010;2023-09-30T01:44:24;15.77;;;3.97;;
20443;SDS011;10381;53.730;10.010;2023-09-30T01:48:24;21.77;;;4.33;;
20443;SDS011;10381;53.730;10.010;2023-09-30T01:52:24;12.23;;;3.30;;
20443;SDS011;10381;53.730;10.010;2023-09-30T01:56:25;23.63;;;3.87;;
20443;SDS011;10381;53.730;10.010;2023-09-30T02:00:25;17.50;;;3.30;;
20443;SDS011;10381;53.730;10.010;2023-09-30T02:04:28;21.02;;;4.03;;
20443;SDS011;10381;53.730;10.010;2023-09-30T02:08:28;13.40;;;4.63;;
20443;SDS011;10381;53.730;10.010;2023-09-30T02:12:28;17.43;;;4.03;;
20443;SDS011;10381;53.730;10.010;2023-09-30T02:16:29;3.35;;;2.25;;
20443;SDS011;10381;53.730;10.010;2023-09-30T02:20:29;15.57;;;3.83;;
20443;SDS011;10381;53.730;10.010;2023-09-30T02:24:30;29.17;;;4.25;;
20443;SDS011;10381;53.730;10.010;2023-09-30T02:28:30;14.80;;;4.17;;
20443;SDS011;10381;53.730;10.010;2023-09-30T02:32:32;15.10;;;3.88;;
20443;SDS011;10381;53.730;10.010;2023-09-30T02:36:33;19.90;;;4.78;;
20443;SDS011;10381;53.730;10.010;2023-09-30T02:40:33;14.23;;;3.37;;
20443;SDS011;10381;53.730;10.010;2023-09-30T02:44:33;16.97;;;4.03;;
20443;SDS011;10381;53.730;10.010;2023-09-30T02:48:34;13.33;;;4.33;;
20443;SDS011;10381;53.730;10.010;2023-09-30T02:52:34;19.23;;;3.23;;
20443;SDS011;10381;53.730;10.010;2023-09-30T02:56:34;13.07;;;3.78;;
20443;SDS011;10381;53.730;10.010;2023-09-30T03:00:35;13.33;;;2.80;;
20443;SDS011;10381;53.730;10.010;2023-09-30T03:04:35;21.98;;;3.75;;
20443;SDS011;10381;53.730;10.010;2023-09-30T03:08:36;12.20;;;3.47;;
20443;SDS011;10381;53.730;10.010;2023-09-30T03:12:37;18.95;;;3.75;;
20443;SDS011;10381;53.730;10.010;2023-09-30T03:16:37;20.20;;;3.93;;
20443;SDS011;10381;53.730;10.010;2023-09-30T03:20:40;13.80;;;5.20;;
20443;SDS011;10381;53.730;10.010;2023-09-30T03:24:43;15.95;;;5.15;;
20443;SDS011;10381;53.730;10.010;2023-09-30T03:28:43;15.67;;;3.73;;
20443;SDS011;10381;53.730;10.010;2023-09-30T03:32:44;9.38;;;3.53;;
20443;SDS011;10381;53.730;10.010;2023-09-30T03:36:47;11.70;;;4.43;;
20443;SDS011;10381;53.730;10.010;2023-09-30T03:40:47;16.38;;;4.47;;
20443;SDS011;10381;53.730;10.010;2023-09-30T03:44:47;22.37;;;5.37;;
20443;SDS011;10381;53.730;10.010;2023-09-30T03:48:51;14.10;;;4.43;;
20443;SDS011;10381;53.730;10.010;2023-09-30T03:52:51;16.58;;;4.72;;
20443;SDS011;10381;53.730;10.010;2023-09-30T03:56:52;22.45;;;4.75;;
20443;SDS011;10381;53.730;10.010;2023-09-30T04:00:52;17.80;;;5.23;;
20443;SDS011;10381;53.730;10.010;2023-09-30T04:04:53;21.85;;;5.70;;
20443;SDS011;10381;53.730;10.010;2023-09-30T04:08:55;9.25;;;4.38;;
20443;SDS011;10381;53.730;10.010;2023-09-30T04:12:58;17.25;;;5.30;;
20443;SDS011;10381;53.730;10.010;2023-09-30T04:16:58;19.10;;;4.07;;
20443;SDS011;10381;53.730;10.010;2023-09-30T04:20:59;21.63;;;5.57;;
20443;SDS011;10381;53.730;10.010;2023-09-30T04:24:59;22.33;;;4.73;;
20443;SDS011;10381;53.730;10.010;2023-09-30T04:28:59;15.57;;;4.37;;
20443;SDS011;10381;53.730;10.010;2023-09-30T04:33:01;18.05;;;4.93;;
20443;SDS011;10381;53.730;10.010;2023-09-30T04:37:04;22.30;;;5.32;;
20443;SDS011;10381;53.730;10.010;2023-09-30T04:41:04;18.02;;;4.78;;
20443;SDS011;10381;53.730;10.010;2023-09-30T04:45:07;15.18;;;4.05;;
20443;SDS011;10381;53.730;10.010;2023-09-30T04:49:10;32.20;;;5.35;;
20443;SDS011;10381;53.730;10.010;2023-09-30T04:53:10;24.10;;;4.10;;
20443;SDS011;10381;53.730;10.010;2023-09-30T04:57:11;16.10;;;4.90;;
20443;SDS011;10381;53.730;10.010;2023-09-30T05:01:11;13.82;;;5.00;;
20443;SDS011;10381;53.730;10.010;2023-09-30T05:05:12;21.73;;;5.35;;
20443;SDS011;10381;53.730;10.010;2023-09-30T05:09:12;14.50;;;5.47;;
20443;SDS011;10381;53.730;10.010;2023-09-30T05:13:12;26.30;;;5.47;;
20443;SDS011;10381;53.730;10.010;2023-09-30T05:17:12;15.57;;;5.20;;
20443;SDS011;10381;53.730;10.010;2023-09-30T05:21:13;8.73;;;4.00;;
20443;SDS011;10381;53.730;10.010;2023-09-30T05:25:14;17.38;;;5.53;;
20443;SDS011;10381;53.730;10.010;2023-09-30T05:29:17;14.85;;;5.10;;
20443;SDS011;10381;53.730;10.010;2023-09-30T05:33:17;18.43;;;5.87;;
20443;SDS011;10381;53.730;10.010;2023-09-30T05:37:18;8.23;;;4.43;;
20443;SDS011;10381;53.730;10.010;2023-09-30T05:41:21;14.15;;;4.95;;
20443;SDS011;10381;53.730;10.010;2023-09-30T05:45:22;17.67;;;5.43;;
20443;SDS011;10381;53.730;10.010;2023-09-30T05:49:23;29.52;;;6.00;;
20443;SDS011;10381;53.730;10.010;2023-09-30T05:53:23;11.43;;;4.10;;
20443;SDS011;10381;53.730;10.010;2023-09-30T05:57:25;18.13;;;5.13;;
20443;SDS011;10381;53.730;10.010;2023-09-30T06:01:26;14.10;;;5.15;;
20443;SDS011;10381;53.730;10.010;2023-09-30T06:05:27;15.90;;;5.50;;
20443;SDS011;10381;53.730;10.010;2023-09-30T06:09:31;20.83;;;5.13;;
20443;SDS011;10381;53.730;10.010;2023-09-30T06:13:32;29.70;;;6.40;;
20443;SDS011;10381;53.730;10.010;2023-09-30T06:17:33;24.25;;;5.40;;
20443;SDS011;10381;53.730;10.010;2023-09-30T06:21:33;17.73;;;4.07;;
20443;SDS011;10381;53.730;10.010;2023-09-30T06:25:34;24.83;;;6.50;;
20443;SDS011;10381;53.730;10.010;2023-09-30T06:29:35;15.30;;;5.15;;
20443;SDS011;10381;53.730;10.010;2023-09-30T06:33:36;23.15;;;6.07;;
20443;SDS011;10381;53.730;10.010;2023-09-30T06:37:38;19.02;;;5.63;;
20443;SDS011;10381;53.730;10.010;2023-09-30T06:41:39;16.10;;;4.85;;
20443;SDS011;10381;53.730;10.010;2023-09-30T06:45:40;12.82;;;5.97;;
20443;SDS011;10381;53.730;10.010;2023-09-30T06:49:41;23.63;;;5.03;;
20443;SDS011;10381;53.730;10.010;2023-09-30T06:53:42;17.50;;;5.70;;
20443;SDS011;10381;53.730;10.010;2023-09-30T06:57:42;22.00;;;5.60;;
20443;SDS011;10381;53.730;10.010;2023-09-30T07:01:43;17.05;;;5.75;;
20443;SDS011;10381;53.730;10.010;2023-09-30T07:05:44;15.57;;;5.68;;
20443;SDS011;10381;53.730;10.010;2023-09-30T07:09:44;22.55;;;5.78;;
20443;SDS011;10381;53.730;10.010;2023-09-30T07:13:45;15.93;;;5.38;;
20443;SDS011;10381;53.730;10.010;2023-09-30T07:17:45;15.40;;;5.67;;
20443;SDS011;10381;53.730;10.010;2023-09-30T07:21:47;9.55;;;5.10;;
20443;SDS011;10381;53.730;10.010;2023-09-30T07:25:47;16.83;;;6.10;;
20443;SDS011;10381;53.730;10.010;2023-09-30T07:29:48;25.13;;;5.90;;
20443;SDS011;10381;53.730;10.010;2023-09-30T07:33:49;16.65;;;4.70;;
20443;SDS011;10381;53.730;10.010;2023-09-30T07:37:49;22.05;;;4.95;;
20443;SDS011;10381;53.730;10.010;2023-09-30T07:41:53;13.60;;;5.00;;
20443;SDS011;10381;53.730;10.010;2023-09-30T07:45:53;8.43;;;3.60;;
20443;SDS011;10381;53.730;10.010;2023-09-30T07:49:54;16.17;;;5.35;;
20443;SDS011;10381;53.730;10.010;2023-09-30T07:53:54;6.80;;;3.33;;
20443;SDS011;10381;53.730;10.010;2023-09-30T07:57:54;14.47;;;4.60;;
20443;SDS011;10381;53.730;10.010;2023-09-30T08:01:57;11.88;;;3.33;;
20443;SDS011;10381;53.730;10.010;2023-09-30T08:05:57;14.87;;;4.13;;
20443;SDS011;10381;53.730;10.010;2023-09-30T08:09:58;11.85;;;3.78;;
20443;SDS011;10381;53.730;10.010;2023-09-30T08:13:58;7.03;;;3.13;;
20443;SDS011;10381;53.730;10.010;2023-09-30T08:17:59;15.03;;;4.00;;
20443;SDS011;10381;53.730;10.010;2023-09-30T08:21:59;13.60;;;3.58;;
20443;SDS011;10381;53.730;10.010;2023-09-30T08:25:59;6.43;;;3.50;;
20443;SDS011;10381;53.730;10.010;2023-09-30T08:30:00;9.10;;;3.33;;
20443;SDS011;10381;53.730;10.010;2023-09-30T08:34:04;8.57;;;3.97;;
20443;SDS011;10381;53.730;10.010;2023-09-30T08:38:05;8.20;;;3.57;;
20443;SDS011;10381;53.730;10.010;2023-09-30T08:42:07;4.03;;;3.35;;
20443;SDS011;10381;53.730;10.010;2023-09-30T08:46:10;17.23;;;3.88;;
20443;SDS011;10381;53.730;10.010;2023-09-30T08:50:11;9.57;;;3.93;;
20443;SDS011;10381;53.730;10.010;2023-09-30T08:54:13;16.33;;;3.75;;
20443;SDS011;10381;53.730;10.010;2023-09-30T08:58:14;12.80;;;4.25;;
20443;SDS011;10381;53.730;10.010;2023-09-30T09:02:15;12.27;;;4.93;;
20443;SDS011;10381;53.730;10.010;2023-09-30T09:06:16;11.52;;;4.28;;
20443;SDS011;10381;53.730;10.010;2023-09-30T09:10:16;11.73;;;4.70;;
20443;SDS011;10381;53.730;10.010;2023-09-30T09:14:17;6.00;;;4.30;;
20443;SDS011;10381;53.730;10.010;2023-09-30T09:18:33;15.25;;;5.07;;
20443;SDS011;10381;53.730;10.010;2023-09-30T09:22:38;16.08;;;5.25;;
20443;SDS011;10381;53.730;10.010;2023-09-30T09:26:40;6.05;;;4.85;;
20443;SDS011;10381;53.730;10.010;2023-09-30T09:30:40;6.13;;;4.65;;
20443;SDS011;10381;53.730;10.010;2023-09-30T09:34:42;9.15;;;4.60;;
20443;SDS011;10381;53.730;10.010;2023-09-30T09:38:44;12.00;;;6.15;;
20443;SDS011;10381;53.730;10.010;2023-09-30T09:42:49;7.13;;;5.75;;
20443;SDS011;10381;53.730;10.010;2023-09-30T09:46:53;7.47;;;6.15;;
20443;SDS011;10381;53.730;10.010;2023-09-30T09:50:54;7.43;;;6.13;;
20443;SDS011;10381;53.730;10.010;2023-09-30T09:54:55;8.07;;;6.70;;
20443;SDS011;10381;53.730;10.010;2023-09-30T09:58:57;13.80;;;6.45;;
20443;SDS011;10381;53.730;10.010;2023-09-30T10:02:58;12.85;;;6.53;;
20443;SDS011;10381;53.730;10.010;2023-09-30T10:06:58;8.52;;;6.20;;
20443;SDS011;10381;53.730;10.010;2023-09-30T10:11:00;7.18;;;6.47;;
20443;SDS011;10381;53.730;10.010;2023-09-30T10:15:01;9.32;;;6.45;;
20443;SDS011;10381;53.730;10.010;2023-09-30T10:19:28;26.60;;;6.47;;
20443;SDS011;10381;53.730;10.010;2023-09-30T10:23:32;15.18;;;7.25;;
20443;SDS011;10381;53.730;10.010;2023-09-30T10:27:35;11.38;;;6.70;;
20443;SDS011;10381;53.730;10.010;2023-09-30T10:31:49;10.90;;;7.43;;
20443;SDS011;10381;53.730;10.010;2023-09-30T10:35:50;16.75;;;7.38;;
20443;SDS011;10381;53.730;10.010;2023-09-30T10:39:53;13.90;;;6.80;;
20443;SDS011;10381;53.730;10.010;2023-09-30T10:44:38;6.80;;;6.18;;
20443;SDS011;10381;53.730;10.010;2023-09-30T10:48:33;24.73;;;7.47;;
20443;SDS011;10381;53.730;10.010;2023-09-30T10:52:37;9.63;;;6.95;;
20443;SDS011;10381;53.730;10.010;2023-09-30T10:56:38;12.00;;;7.15;;
20443;SDS011;10381;53.730;10.010;2023-09-30T11:00:38;10.27;;;7.00;;
20443;SDS011;10381;53.730;10.010;2023-09-30T11:04:45;7.63;;;6.83;;
20443;SDS011;10381;53.730;10.010;2023-09-30T11:08:52;8.30;;;7.07;;
20443;SDS011;10381;53.730;10.010;2023-09-30T11:12:58;14.45;;;7.88;;
20443;SDS011;10381;53.730;10.010;2023-09-30T11:17:02;16.55;;;7.60;;
20443;SDS011;10381;53.730;10.010;2023-09-30T11:25:05;8.20;;;7.40;;
20443;SDS011;10381;53.730;10.010;2023-09-30T11:33:16;12.02;;;8.52;;
20443;SDS011;10381;53.730;10.010;2023-09-30T11:37:16;7.97;;;7.18;;
20443;SDS011;10381;53.730;10.010;2023-09-30T11:41:17;9.07;;;7.55;;
20443;SDS011;10381;53.730;10.010;2023-09-30T11:45:21;8.63;;;7.80;;
20443;SDS011;10381;53.730;10.010;2023-09-30T11:49:31;12.65;;;7.47;;
20443;SDS011;10381;53.730;10.010;2023-09-30T11:53:36;11.68;;;8.00;;
20443;SDS011;10381;53.730;10.010;2023-09-30T11:57:36;8.87;;;7.77;;
20443;SDS011;10381;53.730;10.010;2023-09-30T12:01:37;8.30;;;7.70;;
20443;SDS011;10381;53.730;10.010;2023-09-30T12:05:37;12.93;;;8.07;;
20443;SDS011;10381;53.730;10.010;2023-09-30T12:09:37;12.93;;;8.43;;
20443;SDS011;10381;53.730;10.010;2023-09-30T12:13:39;10.25;;;8.35;;
20443;SDS011;10381;53.730;10.010;2023-09-30T12:17:39;15.07;;;8.83;;
20443;SDS011;10381;53.730;10.010;2023-09-30T12:21:39;15.37;;;9.47;;
20443;SDS011;10381;53.730;10.010;2023-09-30T12:25:40;16.13;;;7.53;;
20443;SDS011;10381;53.730;10.010;2023-09-30T12:29:40;12.50;;;8.70;;
20443;SDS011;10381;53.730;10.010;2023-09-30T12:33:41;8.98;;;8.10;;
20443;SDS011;10381;53.730;10.010;2023-09-30T12:37:41;9.67;;;8.77;;
20443;SDS011;10381;53.730;10.010;2023-09-30T12:41:43;14.00;;;9.45;;
20443;SDS011;10381;53.730;10.010;2023-09-30T12:45:44;21.25;;;8.98;;
20443;SDS011;10381;53.730;10.010;2023-09-30T12:49:45;10.18;;;9.00;;
20443;SDS011;10381;53.730;10.010;2023-09-30T12:53:45;10.07;;;8.47;;
20443;SDS011;10381;53.730;10.010;2023-09-30T12:57:46;13.83;;;9.10;;
20443;SDS011;10381;53.730;10.010;2023-09-30T13:01:46;11.23;;;9.57;;
20443;SDS011;10381;53.730;10.010;2023-09-30T13:05:48;11.15;;;8.93;;
20443;SDS011;10381;53.730;10.010;2023-09-30T13:09:48;14.32;;;8.50;;
20443;SDS011;10381;53.730;10.010;2023-09-30T13:13:48;15.47;;;9.43;;
20443;SDS011;10381;53.730;10.010;2023-09-30T13:17:49;9.95;;;8.25;;
20443;SDS011;10381;53.730;10.010;2023-09-30T13:21:49;9.40;;;8.67;;
20443;SDS011;10381;53.730;10.010;2023-09-30T13:25:50;11.73;;;9.32;;
20443;SDS011;10381;53.730;10.010;2023-09-30T13:29:51;8.77;;;7.83;;
20443;SDS011;10381;53.730;10.010;2023-09-30T13:33:54;13.20;;;8.95;;
20443;SDS011;10381;53.730;10.010;2023-09-30T13:37:54;10.57;;;8.47;;
20443;SDS011;10381;53.730;10.010;2023-09-30T13:41:55;11.47;;;8.87;;
20443;SDS011;10381;53.730;10.010;2023-09-30T13:45:55;16.47;;;9.53;;
20443;SDS011;10381;53.730;10.010;2023-09-30T13:49:56;13.90;;;9.40;;
20443;SDS011;10381;53.730;10.010;2023-09-30T13:53:56;9.52;;;8.82;;
20443;SDS011;10381;53.730;10.010;2023-09-30T13:57:57;9.82;;;8.93;;
20443;SDS011;10381;53.730;10.010;2023-09-30T14:01:57;10.80;;;9.80;;
20443;SDS011;10381;53.730;10.010;2023-09-30T14:05:58;10.47;;;9.47;;
20443;SDS011;10381;53.730;10.010;2023-09-30T14:09:59;10.45;;;9.40;;
20443;SDS011;10381;53.730;10.010;2023-09-30T14:13:59;12.30;;;8.40;;
20443;SDS011;10381;53.730;10.010;2023-09-30T14:18:00;15.95;;;9.40;;
20443;SDS011;10381;53.730;10.010;2023-09-30T14:22:02;11.77;;;9.18;;
20443;SDS011;10381;53.730;10.010;2023-09-30T14:26:04;9.20;;;8.45;;
20443;SDS011;10381;53.730;10.010;2023-09-30T14:30:10;10.45;;;8.25;;
20443;SDS011;10381;53.730;10.010;2023-09-30T14:34:11;10.88;;;8.85;;
20443;SDS011;10381;53.730;10.010;2023-09-30T14:38:11;9.97;;;8.67;;
20443;SDS011;10381;53.730;10.010;2023-09-30T14:42:12;21.10;;;8.82;;
20443;SDS011;10381;53.730;10.010;2023-09-30T14:46:12;11.00;;;9.40;;
20443;SDS011;10381;53.730;10.010;2023-09-30T14:50:12;9.30;;;8.33;;
20443;SDS011;10381;53.730;10.010;2023-09-30T14:54:13;11.97;;;7.63;;
20443;SDS011;10381;53.730;10.010;2023-09-30T14:58:13;14.80;;;9.13;;
20443;SDS011;10381;53.730;10.010;2023-09-30T15:02:14;8.73;;;8.00;;
20443;SDS011;10381;53.730;10.010;2023-09-30T15:06:15;8.55;;;7.80;;
20443;SDS011;10381;53.730;10.010;2023-09-30T15:10:15;12.37;;;8.13;;
20443;SDS011;10381;53.730;10.010;2023-09-30T15:14:15;8.93;;;8.13;;
20443;SDS011;10381;53.730;10.010;2023-09-30T15:18:16;14.77;;;8.18;;
20443;SDS011;10381;53.730;10.010;2023-09-30T15:22:16;11.70;;;8.93;;
20443;SDS011;10381;53.730;10.010;2023-09-30T15:26:16;8.20;;;7.50;;
20443;SDS011;10381;53.730;10.010;2023-09-30T15:30:17;14.07;;;8.23;;
20443;SDS011;10381;53.730;10.010;2023-09-30T15:34:17;11.25;;;7.97;;
20443;SDS011;10381;53.730;10.010;2023-09-30T15:38:18;10.15;;;8.65;;
20443;SDS011;10381;53.730;10.010;2023-09-30T15:42:18;13.50;;;8.60;;
20443;SDS011;10381;53.730;10.010;2023-09-30T15:46:19;15.48;;;8.13;;
20443;SDS011;10381;53.730;10.010;2023-09-30T15:50:19;22.63;;;8.18;;
20443;SDS011;10381;53.730;10.010;2023-09-30T15:54:19;9.55;;;7.88;;
20443;SDS011;10381;53.730;10.010;2023-09-30T15:58:20;15.47;;;8.10;;
20443;SDS011;10381;53.730;10.010;2023-09-30T16:02:20;7.27;;;6.77;;
20443;SDS011;10381;53.730;10.010;2023-09-30T16:06:20;8.43;;;7.70;;
20443;SDS011;10381;53.730;10.010;2023-09-30T16:10:20;15.93;;;7.80;;
20443;SDS011;10381;53.730;10.010;2023-09-30T16:14:21;7.90;;;7.18;;
20443;SDS011;10381;53.730;10.010;2023-09-30T16:18:21;8.87;;;6.70;;
20443;SDS011;10381;53.730;10.010;2023-09-30T16:22:21;14.70;;;6.33;;
20443;SDS011;10381;53.730;10.010;2023-09-30T16:26:22;6.57;;;5.97;;
20443;SDS011;10381;53.730;10.010;2023-09-30T16:30:22;5.50;;;5.00;;
20443;SDS011;10381;53.730;10.010;2023-09-30T16:34:22;5.63;;;5.00;;
20443;SDS011;10381;53.730;10.010;2023-09-30T16:38:22;6.67;;;5.17;;
20443;SDS011;10381;53.730;10.010;2023-09-30T16:42:24;5.07;;;4.63;;
20443;SDS011;10381;53.730;10.010;2023-09-30T16:46:25;6.43;;;5.05;;
20443;SDS011;10381;53.730;10.010;2023-09-30T16:50:25;15.57;;;5.60;;
20443;SDS011;10381;53.730;10.010;2023-09-30T16:54:25;4.77;;;4.37;;
20443;SDS011;10381;53.730;10.010;2023-09-30T16:58:26;5.93;;;4.50;;
20443;SDS011;10381;53.730;10.010;2023-09-30T17:02:26;5.63;;;4.23;;
20443;SDS011;10381;53.730;10.010;2023-09-30T17:06:26;5.63;;;4.07;;
20443;SDS011;10381;53.730;10.010;2023-09-30T17:10:27;5.20;;;3.75;;
20443;SDS011;10381;53.730;10.010;2023-09-30T17:14:27;6.60;;;3.50;;
20443;SDS011;10381;53.730;10.010;2023-09-30T17:18:29;6.88;;;3.60;;
20443;SDS011;10381;53.730;10.010;2023-09-30T17:22:29;3.60;;;2.80;;
20443;SDS011;10381;53.730;10.010;2023-09-30T17:26:29;8.80;;;3.03;;
20443;SDS011;10381;53.730;10.010;2023-09-30T17:30:30;4.30;;;2.73;;
20443;SDS011;10381;53.730;10.010;2023-09-30T17:34:30;7.03;;;2.77;;
20443;SDS011;10381;53.730;10.010;2023-09-30T17:38:30;5.33;;;3.00;;
20443;SDS011;10381;53.730;10.010;2023-09-30T17:42:32;4.90;;;2.80;;
20443;SDS011;10381;53.730;10.010;2023-09-30T17:46:33;4.70;;;2.25;;
20443;SDS011;10381;53.730;10.010;2023-09-30T17:50:33;6.43;;;2.50;;
20443;SDS011;10381;53.730;10.010;2023-09-30T17:54:33;14.47;;;3.47;;
20443;SDS011;10381;53.730;10.010;2023-09-30T17:58:34;7.68;;;3.05;;
20443;SDS011;10381;53.730;10.010;2023-09-30T18:02:34;6.37;;;3.00;;
20443;SDS011;10381;53.730;10.010;2023-09-30T18:06:35;5.80;;;3.20;;
20443;SDS011;10381;53.730;10.010;2023-09-30T18:10:35;5.63;;;2.78;;
20443;SDS011;10381;53.730;10.010;2023-09-30T18:14:35;7.68;;;3.40;;
20443;SDS011;10381;53.730;10.010;2023-09-30T18:18:36;5.70;;;2.93;;
20443;SDS011;10381;53.730;10.010;2023-09-30T18:22:37;4.65;;;2.92;;
20443;SDS011;10381;53.730;10.010;2023-09-30T18:26:38;15.75;;;3.40;;
20443;SDS011;10381;53.730;10.010;2023-09-30T18:30:38;6.82;;;2.88;;
20443;SDS011;10381;53.730;10.010;2023-09-30T18:34:42;14.75;;;3.78;;
20443;SDS011;10381;53.730;10.010;2023-09-30T18:38:43;16.77;;;3.65;;
20443;SDS011;10381;53.730;10.010;2023-09-30T18:42:46;10.68;;;3.75;;
20443;SDS011;10381;53.730;10.010;2023-09-30T18:46:46;7.73;;;2.97;;
20443;SDS011;10381;53.730;10.010;2023-09-30T18:50:50;8.65;;;3.55;;
20443;SDS011;10381;53.730;10.010;2023-09-30T18:54:51;19.23;;;3.50;;
20443;SDS011;10381;53.730;10.010;2023-09-30T18:58:51;9.23;;;3.25;;
20443;SDS011;10381;53.730;10.010;2023-09-30T19:02:51;7.67;;;3.53;;
20443;SDS011;10381;53.730;10.010;2023-09-30T19:06:52;13.77;;;3.70;;
20443;SDS011;10381;53.730;10.010;2023-09-30T19:10:52;13.97;;;4.13;;
20443;SDS011;10381;53.730;10.010;2023-09-30T19:14:52;9.98;;;3.45;;
20443;SDS011;10381;53.730;10.010;2023-09-30T19:18:53;20.53;;;3.57;;
20443;SDS011;10381;53.730;10.010;2023-09-30T19:22:54;12.93;;;4.40;;
20443;SDS011;10381;53.730;10.010;2023-09-30T19:26:54;9.45;;;3.83;;
20443;SDS011;10381;53.730;10.010;2023-09-30T19:30:54;13.63;;;3.53;;
20443;SDS011;10381;53.730;10.010;2023-09-30T19:34:55;14.93;;;4.20;;
20443;SDS011;10381;53.730;10.010;2023-09-30T19:38:57;10.77;;;3.17;;
20443;SDS011;10381;53.730;10.010;2023-09-30T19:42:57;16.83;;;4.57;;
20443;SDS011;10381;53.730;10.010;2023-09-30T19:46:58;9.48;;;4.13;;
20443;SDS011;10381;53.730;10.010;2023-09-30T19:50:58;8.10;;;3.60;;
20443;SDS011;10381;53.730;10.010;2023-09-30T19:54:58;15.73;;;3.75;;
20443;SDS011;10381;53.730;10.010;2023-09-30T19:58:58;10.97;;;3.93;;
20443;SDS011;10381;53.730;10.010;2023-09-30T20:02:59;20.45;;;3.67;;
20443;SDS011;10381;53.730;10.010;2023-09-30T20:07:00;10.90;;;4.03;;
20443;SDS011;10381;53.730;10.010;2023-09-30T20:11:00;8.05;;;4.03;;
20443;SDS011;10381;53.730;10.010;2023-09-30T20:15:01;9.85;;;4.25;;
20443;SDS011;10381;53.730;10.010;2023-09-30T20:19:02;15.23;;;4.53;;
20443;SDS011;10381;53.730;10.010;2023-09-30T20:23:03;9.40;;;3.22;;
20443;SDS011;10381;53.730;10.010;2023-09-30T20:27:03;9.35;;;3.75;;
20443;SDS011;10381;53.730;10.010;2023-09-30T20:31:04;8.48;;;3.30;;
20443;SDS011;10381;53.730;10.010;2023-09-30T20:35:04;4.20;;;3.00;;
20443;SDS011;10381;53.730;10.010;2023-09-30T20:39:05;9.75;;;3.25;;
20443;SDS011;10381;53.730;10.010;2023-09-30T20:43:10;12.10;;;4.10;;
20443;SDS011;10381;53.730;10.010;2023-09-30T20:47:11;10.82;;;3.25;;
20443;SDS011;10381;53.730;10.010;2023-09-30T20:51:11;14.60;;;3.53;;
20443;SDS011;10381;53.730;10.010;2023-09-30T20:55:11;12.45;;;4.00;;
20443;SDS011;10381;53.730;10.010;2023-09-30T20:59:12;7.03;;;3.13;;
20443;SDS011;10381;53.730;10.010;2023-09-30T21:03:12;10.02;;;4.13;;
20443;SDS011;10381;53.730;10.010;2023-09-30T21:07:12;9.77;;;4.23;;
20443;SDS011;10381;53.730;10.010;2023-09-30T21:11:13;9.85;;;3.90;;
20443;SDS011;10381;53.730;10.010;2023-09-30T21:15:13;10.00;;;3.30;;
20443;SDS011;10381;53.730;10.010;2023-09-30T21:19:13;9.23;;;3.50;;
20443;SDS011;10381;53.730;10.010;2023-09-30T21:23:14;7.33;;;2.87;;
20443;SDS011;10381;53.730;10.010;2023-09-30T21:27:14;7.03;;;3.87;;
20443;SDS011;10381;53.730;10.010;2023-09-30T21:31:19;12.77;;;3.85;;
20443;SDS011;10381;53.730;10.010;2023-09-30T21:35:20;11.65;;;3.88;;
20443;SDS011;10381;53.730;10.010;2023-09-30T21:39:21;10.82;;;3.35;;
20443;SDS011;10381;53.730;10.010;2023-09-30T21:43:22;15.45;;;2.92;;
20443;SDS011;10381;53.730;10.010;2023-09-30T21:47:22;16.27;;;3.73;;
20443;SDS011;10381;53.730;10.010;2023-09-30T21:51:22;12.70;;;3.93;;
20443;SDS011;10381;53.730;10.010;2023-09-30T21:55:22;8.00;;;3.63;;
20443;SDS011;10381;53.730;10.010;2023-09-30T21:59:23;7.63;;;3.63;;
20443;SDS011;10381;53.730;10.010;2023-09-30T22:03:23;6.87;;;3.23;;
20443;SDS011;10381;53.730;10.010;2023-09-30T22:07:23;13.95;;;2.90;;
20443;SDS011;10381;53.730;10.010;2023-09-30T22:11:25;7.03;;;3.45;;
20443;SDS011;10381;53.730;10.010;2023-09-30T22:15:26;18.43;;;3.67;;
20443;SDS011;10381;53.730;10.010;2023-09-30T22:19:28;6.15;;;2.90;;
20443;SDS011;10381;53.730;10.010;2023-09-30T22:23:28;19.63;;;3.40;;
20443;SDS011;10381;53.730;10.010;2023-09-30T22:27:29;14.07;;;3.58;;
20443;SDS011;10381;53.730;10.010;2023-09-30T22:31:30;13.25;;;3.60;;
20443;SDS011;10381;53.730;10.010;2023-09-30T22:35:32;11.55;;;3.42;;
20443;SDS011;10381;53.730;10.010;2023-09-30T22:39:32;16.75;;;3.90;;
20443;SDS011;10381;53.730;10.010;2023-09-30T22:43:33;5.70;;;3.07;;
20443;SDS011;10381;53.730;10.010;2023-09-30T22:47:49;6.90;;;2.65;;
20443;SDS011;10381;53.730;10.010;2023-09-30T22:51:52;10.50;;;3.05;;
20443;SDS011;10381;53.730;10.010;2023-09-30T22:55:53;8.27;;;3.30;;
20443;SDS011;10381;53.730;10.010;2023-09-30T22:59:54;5.38;;;2.88;;
20443;SDS011;10381;53.730;10.010;2023-09-30T23:03:55;9.25;;;3.20;;
20443;SDS011;10381;53.730;10.010;2023-09-30T23:07:56;11.02;;;3.45;;
20443;SDS011;10381;53.730;10.010;2023-09-30T23:11:57;8.70;;;4.25;;
20443;SDS011;10381;53.730;10.010;2023-09-30T23:15:57;6.43;;;3.03;;
20443;SDS011;10381;53.730;10.010;2023-09-30T23:19:57;10.10;;;3.40;;
20443;SDS011;10381;53.730;10.010;2023-09-30T23:23:58;5.90;;;3.03;;
20443;SDS011;10381;53.730;10.010;2023-09-30T23:27:58;13.52;;;3.65;;
20443;SDS011;10381;53.730;10.010;2023-09-30T23:32:01;6.78;;;3.58;;
20443;SDS011;10381;53.730;10.010;2023-09-30T23:36:01;8.97;;;3.77;;
20443;SDS011;10381;53.730;10.010;2023-09-30T23:40:03;5.38;;;3.20;;
20443;SDS011;10381;53.730;10.010;2023-09-30T23:44:07;10.07;;;3.53;;
20443;SDS011;10381;53.730;10.010;2023-09-30T23:48:08;6.40;;;3.17;;